Arrey, New Mexico
Current Conditions -  °F | °C
As of 11:53 PM on Friday 31 Oct 2014 (Local Time) from KTCS Reporting Station
Clear Clear  
Wind Chill: 59°   Ceiling: Unl
Heat Index: 59°   Visibility: 10mi
Dew Point: 39°   Wind: 3mph
Humidity: 48%   Direction: 180°S
Pressure: 30.21"   Gusts: NA
Location:  32.79°N, 107.32°W
Report Text: KTCS 010553Z AUTO 18003KT 10SM CLR 15/04 A3021 RMK AO2 SLP172 T01500039 10200 20150 58005 TSNO
Loading
Personal Weather Stations






























Interactive Weather Map
Tropical Storm Tracking
New forecast layout! Learn more

10-Day Weather Forecast

Advertisements
Track Severe Weather on mobile